createdAt,value
2019-05-10T00:00:46.824Z,24.03
2019-05-10T00:03:36.730Z,24.57
2019-05-10T00:06:26.018Z,26.93
2019-05-10T00:08:56.722Z,25.63
2019-05-10T00:11:49.328Z,26.60
2019-05-10T00:14:46.397Z,28.53
2019-05-10T00:17:31.219Z,29.53
2019-05-10T00:20:03.012Z,30.40
2019-05-10T00:22:35.019Z,29.90
2019-05-10T00:25:07.962Z,29.65
2019-05-10T00:27:39.850Z,28.10
2019-05-10T00:30:12.250Z,27.83
2019-05-10T00:32:44.400Z,29.23
2019-05-10T00:35:16.110Z,28.40
2019-05-10T00:37:48.585Z,30.40
2019-05-10T00:40:20.277Z,30.13
2019-05-10T00:42:51.911Z,27.47
2019-05-10T00:45:24.014Z,27.70
2019-05-10T00:47:56.192Z,27.23
2019-05-10T00:50:28.452Z,25.17
2019-05-10T00:53:00.270Z,21.97
2019-05-10T00:55:32.683Z,23.13
2019-05-10T00:58:04.596Z,24.00
2019-05-10T01:00:36.813Z,23.60
2019-05-10T01:03:10.517Z,25.33
2019-05-10T01:05:42.297Z,25.20
2019-05-10T01:08:14.188Z,24.43
2019-05-10T01:10:45.849Z,23.43
2019-05-10T01:13:17.613Z,25.23
2019-05-10T01:15:49.658Z,24.33
2019-05-10T01:18:21.543Z,23.50
2019-05-10T01:20:53.315Z,23.07
2019-05-10T01:23:25.106Z,24.37
2019-05-10T01:25:57.037Z,24.53
2019-05-10T01:28:29.942Z,25.13
2019-05-10T01:31:01.822Z,24.72
2019-05-10T01:33:33.683Z,24.13
2019-05-10T01:36:06.419Z,22.63
2019-05-10T01:38:38.084Z,23.40
2019-05-10T01:41:11.135Z,21.53
2019-05-10T01:43:42.949Z,20.53
2019-05-10T01:46:14.466Z,21.35
2019-05-10T01:48:47.088Z,20.77
2019-05-10T01:51:20.446Z,16.05
2019-05-10T01:53:52.322Z,17.10
2019-05-10T01:56:23.850Z,18.90
2019-05-10T01:58:56.081Z,16.83
2019-05-10T02:01:29.025Z,18.47
2019-05-10T02:04:00.841Z,19.17
2019-05-10T02:06:32.931Z,18.98
2019-05-10T02:09:07.402Z,18.27
2019-05-10T02:11:39.382Z,17.63
2019-05-10T02:14:10.996Z,17.77
2019-05-10T02:16:42.939Z,16.30
2019-05-10T02:19:15.887Z,15.57
2019-05-10T02:21:47.896Z,15.70
2019-05-10T02:24:21.219Z,17.00
2019-05-10T02:26:52.985Z,16.30
2019-05-10T02:29:24.964Z,16.27
2019-05-10T02:31:56.650Z,16.60
2019-05-10T02:34:28.472Z,16.50
2019-05-10T02:37:00.368Z,17.67
2019-05-10T02:39:32.644Z,17.00
2019-05-10T02:42:04.222Z,16.70
2019-05-10T02:44:35.964Z,16.70
2019-05-10T02:47:07.527Z,15.70
2019-05-10T02:49:39.491Z,17.30
2019-05-10T02:52:11.503Z,15.93
2019-05-10T02:54:44.323Z,15.87
2019-05-10T02:57:17.331Z,16.75
2019-05-10T02:59:50.557Z,17.30
2019-05-10T03:02:22.989Z,18.00
2019-05-10T03:04:57.063Z,15.93
2019-05-10T03:07:29.886Z,16.37
2019-05-10T03:10:04.152Z,18.23
2019-05-10T03:12:38.683Z,17.57
2019-05-10T03:15:12.086Z,17.33
2019-05-10T03:17:44.058Z,17.87
2019-05-10T03:20:15.898Z,16.83
2019-05-10T03:22:48.555Z,17.47
2019-05-10T03:25:20.565Z,17.40
2019-05-10T03:27:52.880Z,17.17
2019-05-10T03:30:24.594Z,17.10
2019-05-10T03:32:56.597Z,16.80
2019-05-10T03:35:28.608Z,18.37
2019-05-10T03:38:01.317Z,19.70
2019-05-10T03:40:33.039Z,22.60
2019-05-10T03:43:04.691Z,23.70
2019-05-10T03:45:36.422Z,25.57
2019-05-10T03:48:09.965Z,24.43
2019-05-10T03:50:41.706Z,24.60
2019-05-10T03:53:13.611Z,26.27
2019-05-10T03:55:45.974Z,24.77
2019-05-10T03:58:17.857Z,25.77
2019-05-10T04:00:50.964Z,25.85
2019-05-10T04:03:22.709Z,26.33
2019-05-10T04:05:54.436Z,27.70
2019-05-10T04:08:26.173Z,26.47
2019-05-10T04:10:58.039Z,26.97
2019-05-10T04:13:29.882Z,31.67
2019-05-10T04:16:01.884Z,28.17
2019-05-10T04:18:33.959Z,28.40
2019-05-10T04:21:07.713Z,28.50
2019-05-10T04:23:39.420Z,28.03
2019-05-10T04:26:11.042Z,28.43
2019-05-10T04:28:43.281Z,28.30
2019-05-10T04:31:15.370Z,29.60
2019-05-10T04:33:47.705Z,27.85
2019-05-10T04:36:21.516Z,26.85
2019-05-10T04:38:53.361Z,30.57
2019-05-10T04:41:26.884Z,30.27
2019-05-10T04:43:59.983Z,34.85
2019-05-10T04:46:32.122Z,37.50
2019-05-10T04:49:04.127Z,31.30
2019-05-10T04:51:36.277Z,32.47
2019-05-10T04:54:09.987Z,29.97
2019-05-10T04:56:41.618Z,24.07
2019-05-10T04:59:13.348Z,30.75
2019-05-10T05:01:44.968Z,24.37
2019-05-10T05:04:16.675Z,25.88
2019-05-10T05:06:48.213Z,28.47
2019-05-10T05:09:20.078Z,16.33
2019-05-10T05:11:51.648Z,17.00
2019-05-10T05:14:23.594Z,18.37
2019-05-10T05:16:55.660Z,22.50
2019-05-10T05:19:27.588Z,17.70
2019-05-10T05:21:59.343Z,17.77
2019-05-10T05:24:31.037Z,18.37
2019-05-10T05:27:03.105Z,16.83
2019-05-10T05:29:34.961Z,16.60
2019-05-10T05:32:07.518Z,16.73
2019-05-10T05:34:39.310Z,17.77
2019-05-10T05:37:11.262Z,16.73
2019-05-10T05:39:43.206Z,16.03
2019-05-10T05:42:15.094Z,17.42
2019-05-10T05:44:46.835Z,15.73
2019-05-10T05:47:18.513Z,16.70
2019-05-10T05:49:50.202Z,17.63
2019-05-10T05:52:22.395Z,16.55
2019-05-10T05:54:57.547Z,18.17
2019-05-10T05:57:29.646Z,18.33
2019-05-10T06:00:04.232Z,18.23
2019-05-10T06:02:44.365Z,17.27
2019-05-10T06:05:09.153Z,14.63
2019-05-10T06:07:41.006Z,12.80
2019-05-10T06:10:17.120Z,13.28
2019-05-10T06:12:50.678Z,12.30
2019-05-10T06:15:23.019Z,12.37
2019-05-10T06:17:56.990Z,11.23
2019-05-10T06:20:28.083Z,10.70
2019-05-10T06:23:06.243Z,10.63
2019-05-10T06:25:39.455Z,10.70
2019-05-10T06:28:24.097Z,9.73
2019-05-10T06:30:40.394Z,11.27
2019-05-10T06:33:13.221Z,11.20
2019-05-10T06:35:46.418Z,9.93
2019-05-10T06:38:18.162Z,11.55
2019-05-10T06:40:51.704Z,11.07
2019-05-10T06:43:23.913Z,13.30
2019-05-10T06:45:55.928Z,12.93
2019-05-10T06:48:33.247Z,13.63
2019-05-10T06:51:03.117Z,11.93
2019-05-10T06:53:35.634Z,9.00
2019-05-10T06:56:07.354Z,9.77
2019-05-10T06:58:39.898Z,9.30
2019-05-10T07:01:11.641Z,8.53
2019-05-10T07:03:43.273Z,8.07
2019-05-10T07:06:14.768Z,8.40
2019-05-10T07:08:51.704Z,9.00
2019-05-10T07:11:19.781Z,9.93
2019-05-10T07:13:53.122Z,8.77
2019-05-10T07:16:26.118Z,8.10
2019-05-10T07:19:00.707Z,8.63
2019-05-10T07:21:32.331Z,9.17
2019-05-10T07:24:04.250Z,10.00
2019-05-10T07:26:37.191Z,10.17
2019-05-10T07:29:08.695Z,9.80
2019-05-10T07:31:41.344Z,10.17
2019-05-10T07:34:15.845Z,9.58
2019-05-10T07:36:48.610Z,10.73
2019-05-10T07:39:21.319Z,9.13
2019-05-10T07:41:53.393Z,9.63
2019-05-10T07:44:25.033Z,8.87
2019-05-10T07:46:58.684Z,9.73
2019-05-10T07:49:32.482Z,9.33
2019-05-10T07:52:04.479Z,9.40
2019-05-10T07:54:37.568Z,9.80
2019-05-10T07:57:09.396Z,9.87
2019-05-10T07:59:49.978Z,6.67
2019-05-10T08:02:14.938Z,5.67
2019-05-10T08:04:46.634Z,5.87
2019-05-10T08:07:18.663Z,6.05
2019-05-10T08:09:50.520Z,6.07
2019-05-10T08:12:22.463Z,5.50
2019-05-10T08:14:53.944Z,7.30
2019-05-10T08:17:25.714Z,6.17
2019-05-10T08:19:57.612Z,4.97
2019-05-10T08:22:32.782Z,4.60
2019-05-10T08:25:03.189Z,5.07
2019-05-10T08:27:34.979Z,5.77
2019-05-10T08:30:22.636Z,4.92
2019-05-10T08:32:42.579Z,4.77
2019-05-10T08:35:17.052Z,5.27
2019-05-10T08:37:48.891Z,6.17
2019-05-10T08:40:28.131Z,6.83
2019-05-10T08:43:00.184Z,4.53
2019-05-10T08:45:27.384Z,4.40
2019-05-10T08:48:00.735Z,5.17
2019-05-10T08:50:47.843Z,5.07
2019-05-10T08:53:10.958Z,5.73
2019-05-10T08:55:39.434Z,6.37
2019-05-10T08:58:12.470Z,19.07
2019-05-10T09:00:53.743Z,5.70
2019-05-10T09:03:18.713Z,5.87
2019-05-10T09:05:52.535Z,5.80
2019-05-10T09:08:27.235Z,4.87
2019-05-10T09:10:58.217Z,4.83
2019-05-10T09:13:37.174Z,5.73
2019-05-10T09:16:03.278Z,6.83
2019-05-10T09:18:38.137Z,9.77
2019-05-10T09:21:10.559Z,7.00
2019-05-10T09:23:42.763Z,8.77
2019-05-10T09:26:16.613Z,6.42
2019-05-10T09:28:55.502Z,6.50
2019-05-10T09:50:02.120Z,4.90
2019-05-10T09:52:33.252Z,4.50
2019-05-10T09:55:10.184Z,4.10
2019-05-10T09:57:40.897Z,5.03
2019-05-10T10:00:13.446Z,4.87
2019-05-10T10:02:47.745Z,4.00
2019-05-10T10:05:19.496Z,4.30
2019-05-10T10:07:51.400Z,5.17
2019-05-10T10:10:30.097Z,4.10
2019-05-10T10:12:58.406Z,4.03
2019-05-10T10:15:34.214Z,5.77
2019-05-10T10:18:04.152Z,4.00
2019-05-10T10:20:43.401Z,3.53
2019-05-10T10:23:10.924Z,3.75
2019-05-10T10:25:42.469Z,4.20
2019-05-10T10:28:19.943Z,3.43
2019-05-10T10:30:50.361Z,4.07
2019-05-10T10:33:25.380Z,8.60
2019-05-10T10:35:56.384Z,4.43
2019-05-10T10:38:31.080Z,4.03
2019-05-10T10:41:02.121Z,4.07
2019-05-10T10:43:33.911Z,3.27
2019-05-10T10:46:11.828Z,3.67
2019-05-10T10:48:43.660Z,3.60
2019-05-10T10:51:12.696Z,3.47
2019-05-10T10:53:46.872Z,3.03
2019-05-10T10:56:17.846Z,2.90
2019-05-10T10:58:50.186Z,3.10
2019-05-10T11:01:25.562Z,3.67
2019-05-10T11:03:57.163Z,4.67
2019-05-10T11:06:29.164Z,3.23
2019-05-10T11:09:01.872Z,3.80
2019-05-10T11:11:38.822Z,3.73
2019-05-10T11:14:07.753Z,3.70
2019-05-10T11:16:41.263Z,4.00
2019-05-10T11:19:15.473Z,3.40
2019-05-10T11:21:51.245Z,8.20
2019-05-10T11:24:23.035Z,3.27
2019-05-10T11:26:54.742Z,2.90
2019-05-10T11:29:28.089Z,5.10
2019-05-10T11:32:15.507Z,3.07
2019-05-10T11:34:37.424Z,3.50
2019-05-10T11:37:07.037Z,3.22
2019-05-10T11:39:45.263Z,3.40
2019-05-10T11:42:15.540Z,2.98
2019-05-10T11:44:50.047Z,2.90
2019-05-10T11:47:26.742Z,3.83
2019-05-10T11:49:54.797Z,3.33
2019-05-10T11:52:29.191Z,2.73
2019-05-10T11:55:01.204Z,3.00
2019-05-10T11:57:33.517Z,3.20
2019-05-10T12:00:14.228Z,4.07
2019-05-10T12:03:00.664Z,6.77
2019-05-10T12:05:19.898Z,3.10
2019-05-10T12:07:54.175Z,2.70
2019-05-10T12:10:25.717Z,3.13
2019-05-10T12:13:08.745Z,3.93
2019-05-10T12:15:31.770Z,4.17
2019-05-10T12:18:04.958Z,3.90
2019-05-10T12:20:52.079Z,4.63
2019-05-10T12:23:13.149Z,3.47
2019-05-10T12:25:59.238Z,5.60
2019-05-10T12:28:24.459Z,3.30
2019-05-10T12:30:51.625Z,3.47
2019-05-10T12:33:25.487Z,2.70
2019-05-10T12:35:56.791Z,3.00
2019-05-10T12:38:29.732Z,3.10
2019-05-10T12:41:05.373Z,3.00
2019-05-10T12:43:37.978Z,3.30
2019-05-10T12:46:10.462Z,2.53
2019-05-10T12:48:42.641Z,3.97
2019-05-10T12:51:16.520Z,2.85
2019-05-10T12:53:52.081Z,2.80
2019-05-10T12:56:22.618Z,3.37
2019-05-10T12:58:57.956Z,2.50
2019-05-10T13:01:31.893Z,2.63
2019-05-10T13:04:07.454Z,2.00
2019-05-10T13:06:35.580Z,1.75
2019-05-10T13:09:08.456Z,1.87
2019-05-10T13:11:40.313Z,2.47
2019-05-10T13:14:11.991Z,1.65
2019-05-10T13:16:43.816Z,1.90
2019-05-10T13:19:19.981Z,2.35
2019-05-10T13:21:53.660Z,2.80
2019-05-10T13:24:22.949Z,2.42
2019-05-10T13:26:54.517Z,3.40
2019-05-10T13:29:26.286Z,2.27
2019-05-10T13:31:58.065Z,2.40
2019-05-10T13:34:30.181Z,2.67
2019-05-10T13:37:02.526Z,2.70
2019-05-10T13:39:34.275Z,2.50
2019-05-10T13:42:09.474Z,1.93
2019-05-10T13:44:42.908Z,2.30
2019-05-10T13:47:12.772Z,2.10
2019-05-10T13:49:48.488Z,1.90
2019-05-10T13:52:18.987Z,1.52
2019-05-10T13:54:50.759Z,1.70
2019-05-10T13:57:23.047Z,1.70
2019-05-10T13:59:55.638Z,2.13
2019-05-10T14:02:32.494Z,2.00
2019-05-10T14:05:01.772Z,2.63
2019-05-10T14:07:33.889Z,2.00
2019-05-10T14:10:05.935Z,3.03
2019-05-10T14:12:38.676Z,2.47
2019-05-10T14:15:13.598Z,2.92
2019-05-10T14:17:44.375Z,4.20
2019-05-10T14:20:25.343Z,2.67
2019-05-10T14:22:55.998Z,2.40
2019-05-10T14:25:29.634Z,2.47
2019-05-10T14:27:58.921Z,2.97
2019-05-10T14:30:31.580Z,3.00
2019-05-10T14:33:03.214Z,2.77
2019-05-10T14:35:35.272Z,3.63
2019-05-10T14:38:10.404Z,3.27
2019-05-10T14:40:40.649Z,3.37
2019-05-10T14:43:12.338Z,3.20
2019-05-10T14:45:44.244Z,3.70
2019-05-10T14:48:15.998Z,3.67
2019-05-10T14:50:48.026Z,3.70
2019-05-10T14:53:25.563Z,3.30
2019-05-10T14:55:55.699Z,3.10
2019-05-10T14:58:27.948Z,3.77
2019-05-10T15:00:59.536Z,2.90
2019-05-10T15:03:35.258Z,2.50
2019-05-10T15:06:05.111Z,2.30
2019-05-10T15:08:36.837Z,2.30
2019-05-10T15:11:09.049Z,2.70
2019-05-10T15:13:41.185Z,2.60
2019-05-10T15:16:19.035Z,2.30
2019-05-10T15:18:46.181Z,2.67
2019-05-10T15:21:18.406Z,2.70
2019-05-10T15:23:54.929Z,2.30
2019-05-10T15:26:24.977Z,2.10
2019-05-10T15:28:57.175Z,2.10
2019-05-10T15:31:31.289Z,2.47
2019-05-10T15:34:05.146Z,2.47
2019-05-10T15:36:36.414Z,2.77
2019-05-10T15:39:08.843Z,3.30
2019-05-10T15:41:42.224Z,3.23
2019-05-10T15:44:14.199Z,4.60
2019-05-10T15:46:47.001Z,3.30
2019-05-10T15:49:23.282Z,3.08
2019-05-10T15:51:56.907Z,2.87
2019-05-10T15:54:27.110Z,3.30
2019-05-10T15:57:00.012Z,3.20
2019-05-10T15:59:31.859Z,4.77
2019-05-10T16:02:03.674Z,3.17
2019-05-10T16:04:35.493Z,2.70
2019-05-10T16:07:09.289Z,4.40
2019-05-10T16:09:41.580Z,3.10
2019-05-10T16:12:13.533Z,3.05
2019-05-10T16:14:46.050Z,2.90
2019-05-10T16:17:23.183Z,3.10
2019-05-10T16:19:59.667Z,3.57
2019-05-10T16:22:30.005Z,3.03
2019-05-10T16:25:02.436Z,3.60
2019-05-10T16:27:34.072Z,2.93
2019-05-10T16:30:12.036Z,3.03
2019-05-10T16:32:41.727Z,2.70
2019-05-10T16:35:14.702Z,3.00
2019-05-10T16:37:46.497Z,2.30
2019-05-10T16:40:18.194Z,2.30
2019-05-10T16:42:49.964Z,1.85
2019-05-10T16:45:21.558Z,2.40
2019-05-10T16:47:53.074Z,2.43
2019-05-10T16:50:31.023Z,2.53
2019-05-10T16:52:59.647Z,3.50
2019-05-10T16:55:35.575Z,3.50
2019-05-10T16:58:09.533Z,3.57
2019-05-10T17:00:45.589Z,3.27
2019-05-10T17:03:18.349Z,3.40
2019-05-10T17:05:53.661Z,3.20
2019-05-10T17:08:20.587Z,3.77
2019-05-10T17:10:52.219Z,3.57
2019-05-10T17:13:24.163Z,3.55
2019-05-10T17:15:55.904Z,3.10
2019-05-10T17:18:27.534Z,3.30
2019-05-10T17:21:00.631Z,3.83
2019-05-10T17:23:32.188Z,4.00
2019-05-10T17:26:03.737Z,3.90
2019-05-10T17:28:37.454Z,3.60
2019-05-10T17:31:09.725Z,3.83
2019-05-10T17:33:42.677Z,5.27
2019-05-10T17:36:19.749Z,5.08
2019-05-10T17:38:53.401Z,4.20
2019-05-10T17:41:26.977Z,5.43
2019-05-10T17:43:58.707Z,4.03
2019-05-10T17:46:30.600Z,5.10
2019-05-10T17:49:02.281Z,5.20
2019-05-10T17:51:34.147Z,6.40
2019-05-10T17:54:07.447Z,6.97
2019-05-10T17:56:40.630Z,7.07
2019-05-10T17:59:14.023Z,7.45
2019-05-10T18:01:46.256Z,8.07
2019-05-10T18:04:18.057Z,8.60
2019-05-10T18:06:49.780Z,8.97
2019-05-10T18:09:21.825Z,8.65
2019-05-10T18:11:53.726Z,9.70
2019-05-10T18:14:25.677Z,9.60
2019-05-10T18:16:57.580Z,10.13
2019-05-10T18:19:31.276Z,11.73
2019-05-10T18:22:06.448Z,13.10
2019-05-10T18:24:41.455Z,11.67
2019-05-10T18:27:10.517Z,11.43
2019-05-10T18:29:42.165Z,12.20
2019-05-10T18:32:13.855Z,14.38
2019-05-10T18:34:47.331Z,15.77
2019-05-10T18:37:21.871Z,14.13
2019-05-10T18:39:53.322Z,15.33
2019-05-10T18:42:27.996Z,14.77
2019-05-10T18:44:59.855Z,14.13
2019-05-10T18:47:31.706Z,14.33
2019-05-10T18:50:03.299Z,14.87
2019-05-10T18:52:35.813Z,15.50
2019-05-10T18:55:07.758Z,15.37
2019-05-10T18:57:39.930Z,15.53
2019-05-10T19:00:12.589Z,16.42
2019-05-10T19:02:44.301Z,17.10
2019-05-10T19:05:16.127Z,16.57
2019-05-10T19:08:02.256Z,17.20
2019-05-10T19:10:21.157Z,17.90
2019-05-10T19:13:01.253Z,17.63
2019-05-10T19:15:27.259Z,17.00
2019-05-10T19:17:59.411Z,17.63
2019-05-10T19:20:30.994Z,16.73
2019-05-10T19:23:05.416Z,17.40
2019-05-10T19:25:37.818Z,18.02
2019-05-10T19:28:09.673Z,17.53
2019-05-10T19:30:42.013Z,17.67
2019-05-10T19:33:14.065Z,18.77
2019-05-10T19:35:46.482Z,17.57
2019-05-10T19:38:19.993Z,17.35
2019-05-10T19:40:52.877Z,17.37
2019-05-10T19:43:24.886Z,19.13
2019-05-10T19:45:59.565Z,19.90
2019-05-10T19:48:35.622Z,18.95
2019-05-10T19:51:09.600Z,17.93
2019-05-10T19:53:42.422Z,18.53
2019-05-10T19:56:14.359Z,18.27
2019-05-10T19:58:49.182Z,17.07
2019-05-10T20:01:20.901Z,18.17
2019-05-10T20:03:52.743Z,19.43
2019-05-10T20:06:24.518Z,17.03
2019-05-10T20:08:56.675Z,17.90
2019-05-10T20:11:29.317Z,17.40
2019-05-10T20:14:01.474Z,18.13
2019-05-10T20:16:33.197Z,17.60
2019-05-10T20:19:05.220Z,17.50
2019-05-10T20:21:37.376Z,17.42
2019-05-10T20:24:09.268Z,16.87
2019-05-10T20:26:40.767Z,18.20
2019-05-10T20:29:13.366Z,17.90
2019-05-10T20:31:44.919Z,17.60
2019-05-10T20:34:16.546Z,17.00
2019-05-10T20:36:49.906Z,17.50
2019-05-10T20:39:21.874Z,17.90
2019-05-10T20:41:53.897Z,17.30
2019-05-10T20:44:25.415Z,18.07
2019-05-10T20:46:58.208Z,17.00
2019-05-10T20:49:31.292Z,16.73
2019-05-10T20:52:02.993Z,17.37
2019-05-10T20:54:34.615Z,17.97
2019-05-10T20:57:06.340Z,18.23
2019-05-10T20:59:38.530Z,17.87
2019-05-10T21:02:10.589Z,17.10
2019-05-10T21:04:43.899Z,16.13
2019-05-10T21:07:15.470Z,16.82
2019-05-10T21:09:47.538Z,17.27
2019-05-10T21:12:19.558Z,17.90
2019-05-10T21:14:51.614Z,18.40
2019-05-10T21:17:23.529Z,19.20
2019-05-10T21:19:55.082Z,20.10
2019-05-10T21:22:27.557Z,19.57
2019-05-10T21:24:59.256Z,21.53
2019-05-10T21:27:32.001Z,23.17
2019-05-10T21:30:03.792Z,20.67
2019-05-10T21:32:35.857Z,23.10
2019-05-10T21:35:08.025Z,22.40
2019-05-10T21:37:39.665Z,23.33
2019-05-10T21:40:11.891Z,21.42
2019-05-10T21:42:43.866Z,21.60
2019-05-10T21:45:15.689Z,20.77
2019-05-10T21:47:51.689Z,23.03
2019-05-10T21:50:21.224Z,22.43
2019-05-10T21:52:53.015Z,21.67
2019-05-10T21:55:24.664Z,22.57
2019-05-10T21:57:56.217Z,23.80
2019-05-10T22:00:32.573Z,28.67
2019-05-10T22:03:05.002Z,27.30
2019-05-10T22:05:37.123Z,29.07
2019-05-10T22:08:09.161Z,29.00
2019-05-10T22:10:40.919Z,32.73
2019-05-10T22:13:13.568Z,32.80
2019-05-10T22:15:46.838Z,33.17
2019-05-10T22:18:18.758Z,34.40
2019-05-10T22:20:51.626Z,35.70
2019-05-10T22:23:23.456Z,36.40
2019-05-10T22:25:55.257Z,37.97
2019-05-10T22:28:28.057Z,37.70
2019-05-10T22:30:59.933Z,35.43
2019-05-10T22:33:32.052Z,33.57
2019-05-10T22:36:03.676Z,37.70
2019-05-10T22:38:35.303Z,40.57
2019-05-10T22:41:07.225Z,40.57
2019-05-10T22:43:39.910Z,40.17
2019-05-10T22:46:11.770Z,39.73
2019-05-10T22:48:43.524Z,38.00
2019-05-10T22:51:15.199Z,36.05
2019-05-10T22:53:59.091Z,37.35
2019-05-10T22:56:20.972Z,34.80
2019-05-10T22:58:53.121Z,35.67
2019-05-10T23:01:26.057Z,37.13
2019-05-10T23:03:57.760Z,35.83
2019-05-10T23:06:29.485Z,37.73
2019-05-10T23:09:01.212Z,37.53
2019-05-10T23:11:33.311Z,40.17
2019-05-10T23:14:06.099Z,40.43
2019-05-10T23:16:37.884Z,37.20
2019-05-10T23:19:11.188Z,38.67
2019-05-10T23:21:45.292Z,41.73
2019-05-10T23:24:18.242Z,39.92
2019-05-10T23:26:50.902Z,42.30
2019-05-10T23:29:22.527Z,44.77
2019-05-10T23:31:54.149Z,46.00
2019-05-10T23:34:26.377Z,44.83
2019-05-10T23:36:58.999Z,44.67
2019-05-10T23:39:40.322Z,44.57
2019-05-10T23:42:04.554Z,42.70
2019-05-10T23:44:38.897Z,41.90
2019-05-10T23:47:10.689Z,42.25
2019-05-10T23:49:42.568Z,42.93
2019-05-10T23:52:14.591Z,42.60
2019-05-10T23:54:47.243Z,42.63
2019-05-10T23:57:19.193Z,42.05
2019-05-10T23:59:50.857Z,41.90
